createdAt,value
2018-07-25T00:02:50.251Z,99861.57
2018-07-25T00:05:52.478Z,99867.52
2018-07-25T00:08:54.721Z,99862.98
2018-07-25T00:11:56.972Z,99859.61
2018-07-25T00:14:59.214Z,99859.24
2018-07-25T00:18:02.009Z,99858.13
2018-07-25T00:21:05.640Z,99864.00
2018-07-25T00:24:09.537Z,99864.80
2018-07-25T00:27:12.638Z,99867.38
2018-07-25T00:30:16.283Z,99864.92
2018-07-25T00:33:19.673Z,99863.94
2018-07-25T00:36:22.226Z,99863.56
2018-07-25T00:39:24.690Z,99865.63
2018-07-25T00:42:26.933Z,99861.15
2018-07-25T00:45:30.175Z,99859.18
2018-07-25T00:48:33.080Z,99860.58
2018-07-25T00:51:36.286Z,99858.02
2018-07-25T00:54:39.136Z,99855.79
2018-07-25T00:57:41.377Z,99860.86
2018-07-25T01:00:43.907Z,99863.16
2018-07-25T01:03:46.128Z,99865.61
2018-07-25T01:06:48.375Z,99862.20
2018-07-25T01:09:50.733Z,99863.49
2018-07-25T01:12:52.980Z,99861.83
2018-07-25T01:15:55.177Z,99868.69
2018-07-25T01:24:20.487Z,99864.21
2018-07-25T01:27:22.796Z,99866.05
2018-07-25T01:30:25.082Z,99871.75
2018-07-25T01:33:27.279Z,99879.95
2018-07-25T01:36:29.449Z,99872.69
2018-07-25T01:39:31.925Z,99878.36
2018-07-25T01:42:34.176Z,99876.79
2018-07-25T01:45:36.538Z,99878.85
2018-07-25T01:48:38.835Z,99879.98
2018-07-25T01:51:41.070Z,99880.50
2018-07-25T01:54:43.409Z,99885.16
2018-07-25T01:57:45.613Z,99886.39
2018-07-25T02:00:48.065Z,99876.53
2018-07-25T02:03:50.323Z,99882.86
2018-07-25T02:06:52.580Z,99881.27
2018-07-25T02:09:55.348Z,99882.48
2018-07-25T02:12:57.604Z,99891.84
2018-07-25T02:15:59.851Z,99890.88
2018-07-25T02:19:02.466Z,99892.82
2018-07-25T02:22:04.698Z,99893.72
2018-07-25T02:25:06.964Z,99894.07
2018-07-25T02:28:09.229Z,99893.72
2018-07-25T02:31:11.465Z,99904.31
2018-07-25T02:34:20.675Z,99901.23
2018-07-25T02:37:22.925Z,99901.84
2018-07-25T02:40:25.194Z,99903.70
2018-07-25T02:43:27.438Z,99903.11
2018-07-25T02:46:29.626Z,99903.96
2018-07-25T02:49:31.979Z,99903.00
2018-07-25T02:52:34.296Z,99903.70
2018-07-25T02:55:36.700Z,99905.72
2018-07-25T02:58:45.949Z,99914.07
2018-07-25T03:02:03.405Z,99904.72
2018-07-25T03:05:05.643Z,99913.81
2018-07-25T03:08:07.869Z,99918.73
2018-07-25T03:11:12.246Z,99920.58
2018-07-25T03:14:14.469Z,99916.55
2018-07-25T03:17:16.789Z,99914.94
2018-07-25T03:20:18.999Z,99918.88
2018-07-25T03:23:21.284Z,99918.88
2018-07-25T03:26:23.648Z,99909.39
2018-07-25T03:29:25.953Z,99915.55
2018-07-25T03:32:28.164Z,99914.54
2018-07-25T03:35:30.492Z,99916.75
2018-07-25T03:38:32.764Z,99915.17
2018-07-25T03:41:39.437Z,99925.23
2018-07-25T03:44:41.795Z,99914.68
2018-07-25T03:47:44.073Z,99915.16
2018-07-25T03:50:46.323Z,99917.75
2018-07-25T03:53:48.598Z,99915.05
2018-07-25T03:56:50.864Z,99914.19
2018-07-25T03:59:53.933Z,99921.05
2018-07-25T04:02:56.341Z,99923.38
2018-07-25T04:05:58.560Z,99927.45
2018-07-25T04:09:00.823Z,99921.55
2018-07-25T04:12:03.530Z,99930.10
2018-07-25T04:15:06.738Z,99924.97
2018-07-25T04:18:09.947Z,99931.39
2018-07-25T04:21:20.327Z,99928.90
2018-07-25T04:24:22.565Z,99931.50
2018-07-25T04:27:25.480Z,99935.92
2018-07-25T04:30:28.609Z,99944.62
2018-07-25T04:33:32.277Z,99943.55
2018-07-25T04:36:35.310Z,99951.41
2018-07-25T04:39:37.971Z,99947.12
2018-07-25T04:42:40.644Z,99946.13
2018-07-25T04:45:43.136Z,99951.01
2018-07-25T04:48:46.290Z,99857.31
2018-07-25T04:51:49.472Z,99948.82
2018-07-25T04:54:51.740Z,99952.14
2018-07-25T04:57:54.229Z,99950.17
2018-07-25T05:00:57.026Z,99953.23
2018-07-25T05:04:00.189Z,99951.54
2018-07-25T05:07:02.636Z,99949.94
2018-07-25T05:10:04.879Z,99956.09
2018-07-25T05:13:07.141Z,99961.24
2018-07-25T05:16:09.684Z,99970.45
2018-07-25T05:19:12.066Z,99968.99
2018-07-25T05:22:14.332Z,99969.86
2018-07-25T05:25:16.573Z,99974.44
2018-07-25T05:28:24.913Z,99974.06
2018-07-25T05:31:27.557Z,99977.26
2018-07-25T05:34:34.173Z,99980.97
2018-07-25T05:37:36.429Z,99981.84
2018-07-25T05:40:40.412Z,99981.69
2018-07-25T05:43:42.830Z,99985.03
2018-07-25T05:46:45.045Z,99993.48
2018-07-25T05:49:47.830Z,99994.13
2018-07-25T05:52:50.163Z,99997.55
2018-07-25T05:55:52.388Z,99992.89
2018-07-25T05:58:54.507Z,99992.77
2018-07-25T06:01:56.648Z,99997.32
2018-07-25T06:04:58.779Z,99992.27
2018-07-25T06:08:00.932Z,99995.20
2018-07-25T06:11:03.104Z,100003.19
2018-07-25T06:14:05.293Z,100005.14
2018-07-25T06:17:07.405Z,100000.95
2018-07-25T06:20:10.243Z,100004.41
2018-07-25T06:23:12.436Z,100001.97
2018-07-25T06:26:14.657Z,100012.72
2018-07-25T06:29:18.127Z,100009.80
2018-07-25T06:32:20.278Z,100010.16
2018-07-25T06:35:23.011Z,100014.17
2018-07-25T06:38:25.335Z,100024.02
2018-07-25T06:41:27.527Z,100025.80
2018-07-25T06:44:30.257Z,100029.03
2018-07-25T06:47:32.895Z,100028.78
2018-07-25T06:50:35.286Z,100022.34
2018-07-25T06:53:38.130Z,100026.25
2018-07-25T06:56:40.421Z,100023.91
2018-07-25T06:59:42.730Z,100028.30
2018-07-25T07:02:45.022Z,100038.42
2018-07-25T07:05:47.303Z,100035.83
2018-07-25T07:08:49.677Z,100040.50
2018-07-25T07:11:51.980Z,100044.03
2018-07-25T07:14:54.256Z,100036.35
2018-07-25T07:17:56.619Z,100043.59
2018-07-25T07:20:58.990Z,100039.99
2018-07-25T07:24:01.377Z,100041.20
2018-07-25T07:27:03.691Z,100037.86
2018-07-25T07:30:06.445Z,100039.79
2018-07-25T07:33:08.800Z,100040.77
2018-07-25T07:36:11.128Z,100045.88
2018-07-25T07:39:13.793Z,100042.52
2018-07-25T07:42:16.154Z,100039.45
2018-07-25T07:45:18.501Z,100044.67
2018-07-25T07:48:20.894Z,100047.97
2018-07-25T07:51:23.286Z,100045.58
2018-07-25T07:54:25.662Z,100045.32
2018-07-25T07:57:27.990Z,100046.25
2018-07-25T08:00:30.830Z,100046.11
2018-07-25T08:03:33.241Z,100042.61
2018-07-25T08:06:35.733Z,100042.39
2018-07-25T08:09:44.673Z,100041.93
2018-07-25T08:12:47.112Z,100038.84
2018-07-25T08:15:49.579Z,100038.25
2018-07-25T08:18:51.918Z,100043.23
2018-07-25T08:21:54.308Z,100042.10
2018-07-25T08:24:56.710Z,100040.70
2018-07-25T08:27:59.051Z,100037.55
2018-07-25T08:31:01.440Z,100044.80
2018-07-25T08:34:03.809Z,100039.81
2018-07-25T08:37:06.160Z,100038.45
2018-07-25T08:40:08.598Z,100043.40
2018-07-25T08:43:10.938Z,100038.38
2018-07-25T08:46:13.361Z,100045.94
2018-07-25T08:49:15.681Z,100043.41
2018-07-25T08:52:17.967Z,100040.19
2018-07-25T08:55:20.345Z,100041.43
2018-07-25T08:58:22.683Z,100040.20
2018-07-25T09:01:25.035Z,100038.44
2018-07-25T09:04:27.371Z,100042.80
2018-07-25T09:07:29.764Z,100043.71
2018-07-25T09:10:32.122Z,100039.00
2018-07-25T09:13:34.441Z,100043.31
2018-07-25T09:16:36.815Z,100045.56
2018-07-25T09:19:39.144Z,100035.32
2018-07-25T09:22:41.461Z,100034.43
2018-07-25T09:25:43.851Z,100041.84
2018-07-25T09:28:46.217Z,100037.31
2018-07-25T09:31:48.579Z,100035.48
2018-07-25T09:34:50.942Z,100033.45
2018-07-25T09:37:53.483Z,100034.02
2018-07-25T09:40:55.892Z,100028.42
2018-07-25T09:43:58.184Z,100033.06
2018-07-25T09:47:01.085Z,100032.80
2018-07-25T09:50:03.980Z,100027.33
2018-07-25T09:53:06.462Z,100028.70
2018-07-25T09:56:08.785Z,100028.22
2018-07-25T09:59:11.251Z,100028.58
2018-07-25T10:02:13.646Z,100029.59
2018-07-25T10:05:16.036Z,100026.72
2018-07-25T10:08:18.396Z,100026.77
2018-07-25T10:11:22.279Z,100031.91
2018-07-25T10:14:24.680Z,100025.23
2018-07-25T10:17:27.067Z,100029.16
2018-07-25T10:20:29.465Z,100025.55
2018-07-25T10:23:31.801Z,100027.09
2018-07-25T10:26:34.123Z,100025.22
2018-07-25T10:29:36.497Z,100022.28
2018-07-25T10:32:38.755Z,100026.20
2018-07-25T10:35:41.025Z,100021.23
2018-07-25T10:38:43.478Z,100018.14
2018-07-25T10:41:45.727Z,100021.16
2018-07-25T10:44:47.915Z,100016.34
2018-07-25T10:47:50.152Z,100013.17
2018-07-25T10:50:52.450Z,100012.00
2018-07-25T10:53:54.751Z,100007.61
2018-07-25T10:56:56.994Z,100006.95
2018-07-25T10:59:59.436Z,100015.61
2018-07-25T11:03:01.705Z,100011.55
2018-07-25T11:06:04.288Z,100007.91
2018-07-25T11:09:07.577Z,100012.02
2018-07-25T11:12:10.003Z,100008.05
2018-07-25T11:15:12.181Z,100016.27
2018-07-25T11:18:15.312Z,100011.62
2018-07-25T11:21:22.808Z,100011.90
2018-07-25T11:24:25.003Z,100011.90
2018-07-25T11:27:27.175Z,100006.08
2018-07-25T11:30:29.351Z,100011.11
2018-07-25T11:33:31.705Z,100004.44
2018-07-25T11:36:34.224Z,100006.16
2018-07-25T11:39:36.443Z,99999.47
2018-07-25T11:42:38.935Z,100003.84
2018-07-25T11:45:42.366Z,99998.31
2018-07-25T11:48:45.216Z,99998.48
2018-07-25T11:51:47.431Z,100000.00
2018-07-25T11:54:49.726Z,99995.51
2018-07-25T11:57:51.901Z,99996.45
2018-07-25T12:00:54.212Z,100003.15
2018-07-25T12:03:56.518Z,100000.19
2018-07-25T12:10:01.220Z,99988.52
2018-07-25T12:13:03.734Z,99986.41
2018-07-25T12:16:06.099Z,99977.36
2018-07-25T12:19:08.455Z,99984.96
2018-07-25T12:22:10.764Z,99976.20
2018-07-25T12:25:13.112Z,99978.95
2018-07-25T12:28:15.394Z,99975.77
2018-07-25T12:31:17.658Z,99970.07
2018-07-25T12:34:19.846Z,99969.45
2018-07-25T12:37:22.039Z,99967.23
2018-07-25T12:40:24.255Z,99967.96
2018-07-25T12:43:26.460Z,99961.67
2018-07-25T12:46:28.666Z,99966.41
2018-07-25T12:49:31.001Z,99969.95
2018-07-25T12:52:33.427Z,99972.72
2018-07-25T12:55:35.711Z,99973.79
2018-07-25T12:58:38.083Z,99963.80
2018-07-25T13:01:40.508Z,99970.67
2018-07-25T13:07:51.672Z,99964.32
2018-07-25T13:10:54.095Z,99955.18
2018-07-25T13:13:56.287Z,99958.44
2018-07-25T13:16:58.518Z,99949.36
2018-07-25T13:20:00.948Z,99950.73
2018-07-25T13:23:03.561Z,99964.76
2018-07-25T13:26:05.891Z,99963.16
2018-07-25T13:29:08.256Z,99963.67
2018-07-25T13:32:10.516Z,99959.32
2018-07-25T13:35:12.763Z,99964.53
2018-07-25T13:38:15.021Z,99967.42
2018-07-25T13:41:17.308Z,99964.41
2018-07-25T13:44:19.606Z,99953.14
2018-07-25T13:47:21.778Z,99954.23
2018-07-25T13:50:24.606Z,99958.41
2018-07-25T13:53:26.855Z,99958.50
2018-07-25T13:56:29.063Z,99955.11
2018-07-25T13:59:31.464Z,99952.62
2018-07-25T14:02:33.696Z,99951.98
2018-07-25T14:05:35.994Z,99952.69
2018-07-25T14:08:38.267Z,99949.77
2018-07-25T14:11:40.931Z,99950.64
2018-07-25T14:14:43.286Z,99957.02
2018-07-25T14:17:45.467Z,99959.28
2018-07-25T14:20:48.157Z,99944.32
2018-07-25T14:23:50.583Z,99949.88
2018-07-25T14:26:59.319Z,99945.03
2018-07-25T14:30:08.493Z,99942.84
2018-07-25T14:33:10.832Z,99942.31
2018-07-25T14:36:13.100Z,99940.73
2018-07-25T14:39:16.349Z,99945.81
2018-07-25T14:42:18.522Z,99943.90
2018-07-25T14:45:20.681Z,99951.53
2018-07-25T14:48:22.922Z,99946.39
2018-07-25T14:51:25.267Z,99950.72
2018-07-25T14:54:27.377Z,99931.50
2018-07-25T14:57:29.549Z,99936.53
2018-07-25T15:00:32.060Z,99944.08
2018-07-25T15:03:34.646Z,99937.98
2018-07-25T15:06:36.880Z,99937.21
2018-07-25T15:09:39.235Z,99936.66
2018-07-25T15:12:42.491Z,99932.50
2018-07-25T15:15:44.771Z,99930.42
2018-07-25T15:18:46.942Z,99931.78
2018-07-25T15:21:49.156Z,99924.87
2018-07-25T15:24:51.332Z,99928.48
2018-07-25T15:27:53.591Z,99925.59
2018-07-25T15:30:55.824Z,99923.81
2018-07-25T15:33:58.042Z,99924.92
2018-07-25T15:37:01.528Z,99921.12
2018-07-25T15:40:04.636Z,99921.61
2018-07-25T15:43:06.936Z,99925.48
2018-07-25T15:46:09.193Z,99918.09
2018-07-25T15:49:11.495Z,99925.09
2018-07-25T15:52:13.776Z,99925.53
2018-07-25T15:55:16.055Z,99924.66
2018-07-25T15:58:18.355Z,99925.73
2018-07-25T16:01:20.736Z,99926.63
2018-07-25T16:04:23.147Z,99923.25
2018-07-25T16:07:25.514Z,99921.78
2018-07-25T16:10:27.864Z,99919.05
2018-07-25T16:13:30.287Z,99924.77
2018-07-25T16:16:32.756Z,99928.75
2018-07-25T16:19:35.043Z,99931.55
2018-07-25T16:22:37.435Z,99929.98
2018-07-25T16:25:39.836Z,99926.41
2018-07-25T16:28:42.212Z,99923.16
2018-07-25T16:31:44.692Z,99915.30
2018-07-25T16:34:47.048Z,99918.01
2018-07-25T16:37:49.699Z,99913.87
2018-07-25T16:40:52.474Z,99915.92
2018-07-25T16:43:55.273Z,99909.62
2018-07-25T16:46:57.963Z,99918.66
2018-07-25T16:50:00.457Z,99920.13
2018-07-25T16:53:03.270Z,99930.17
2018-07-25T16:56:06.125Z,99930.20
2018-07-25T16:59:14.427Z,99934.86
2018-07-25T17:02:16.789Z,99941.52
2018-07-25T17:05:19.782Z,99944.88
2018-07-25T17:08:22.119Z,99940.64
2018-07-25T17:11:24.502Z,99944.58
2018-07-25T17:14:27.049Z,99944.91
2018-07-25T17:17:29.516Z,99960.68
2018-07-25T17:20:31.973Z,99962.25
2018-07-25T17:24:46.050Z,99818.63
2018-07-25T17:27:49.664Z,99968.38
2018-07-25T17:30:53.326Z,99964.97
2018-07-25T17:33:56.661Z,99968.39
2018-07-25T17:37:00.453Z,99965.52
2018-07-25T17:40:05.928Z,99969.95
2018-07-25T17:43:09.646Z,99966.88
2018-07-25T17:46:12.817Z,99965.52
2018-07-25T17:49:16.182Z,99966.86
2018-07-25T17:52:20.984Z,99962.75
2018-07-25T17:55:31.189Z,99962.92
2018-07-25T17:58:34.622Z,99974.55
2018-07-25T18:01:38.095Z,99975.91
2018-07-25T18:04:41.340Z,99978.98
2018-07-25T18:07:45.044Z,99988.69
2018-07-25T18:10:48.501Z,99988.31
2018-07-25T18:13:57.677Z,99992.31
2018-07-25T18:17:01.019Z,99999.98
2018-07-25T18:20:06.031Z,100004.72
2018-07-25T18:23:09.350Z,100006.75
2018-07-25T18:26:12.891Z,100016.98
2018-07-25T18:29:16.127Z,100019.55
2018-07-25T18:32:19.135Z,100022.28
2018-07-25T18:35:22.121Z,100030.64
2018-07-25T18:38:25.258Z,100054.77
2018-07-25T18:41:28.542Z,100068.16
2018-07-25T18:44:31.705Z,100055.98
2018-07-25T18:47:34.886Z,100051.00
2018-07-25T18:50:38.132Z,100056.47
2018-07-25T18:53:41.553Z,100057.97
2018-07-25T18:56:44.761Z,100059.70
2018-07-25T18:59:47.929Z,100057.91
2018-07-25T19:02:50.924Z,100056.30
2018-07-25T19:05:54.078Z,100054.69
2018-07-25T19:08:57.438Z,100050.22
2018-07-25T19:12:00.781Z,100055.63
2018-07-25T19:15:09.987Z,100063.34
2018-07-25T19:18:12.985Z,100065.39
2018-07-25T19:21:15.918Z,100064.92
2018-07-25T19:24:19.043Z,100081.09
2018-07-25T19:27:22.433Z,100079.93
2018-07-25T19:30:25.680Z,100078.88
2018-07-25T19:33:28.701Z,100075.06
2018-07-25T19:36:31.844Z,100077.75
2018-07-25T19:39:36.477Z,100082.92
2018-07-25T19:42:39.513Z,100086.72
2018-07-25T19:45:42.869Z,100078.05
2018-07-25T19:48:46.124Z,100077.55
2018-07-25T19:51:49.224Z,100080.52
2018-07-25T19:54:52.398Z,100090.92
2018-07-25T19:57:55.423Z,100082.50
2018-07-25T20:00:58.777Z,100082.06
2018-07-25T20:04:02.032Z,100071.86
2018-07-25T20:07:06.023Z,100077.98
2018-07-25T20:10:09.305Z,100080.87
2018-07-25T20:13:12.635Z,100084.47
2018-07-25T20:16:15.985Z,100078.56
2018-07-25T20:19:26.026Z,100071.13
2018-07-25T20:22:29.462Z,100071.70
2018-07-25T20:25:32.593Z,100072.48
2018-07-25T20:28:35.838Z,100076.61
2018-07-25T20:31:39.085Z,100072.89
2018-07-25T20:34:42.521Z,100073.44
2018-07-25T20:37:45.787Z,100072.33
2018-07-25T20:40:49.271Z,100065.67
2018-07-25T20:43:52.454Z,100062.61
2018-07-25T20:46:56.462Z,100066.97
2018-07-25T20:49:59.695Z,100067.94
2018-07-25T20:53:03.611Z,99841.82
2018-07-25T20:56:07.477Z,100061.11
2018-07-25T20:59:12.561Z,100066.97
2018-07-25T21:02:16.355Z,100069.63
2018-07-25T21:05:20.134Z,100071.94
2018-07-25T21:08:24.334Z,100073.20
2018-07-25T21:11:28.100Z,100076.52
2018-07-25T21:14:32.481Z,100073.44
2018-07-25T21:17:36.325Z,100073.88
2018-07-25T21:20:41.345Z,100074.87
2018-07-25T21:23:46.577Z,100078.03
2018-07-25T21:26:50.811Z,100085.63
2018-07-25T21:29:57.342Z,100088.84
2018-07-25T21:33:09.439Z,100081.61
2018-07-25T21:36:12.824Z,100087.52
2018-07-25T21:39:16.325Z,100083.44
2018-07-25T21:42:21.142Z,100086.78
2018-07-25T21:45:25.420Z,100092.79
2018-07-25T21:48:29.644Z,100093.22
2018-07-25T21:51:33.129Z,100088.84
2018-07-25T21:54:37.462Z,100083.75
2018-07-25T21:57:41.186Z,100087.83
2018-07-25T22:01:10.496Z,100085.04
2018-07-25T22:04:14.977Z,100073.06
2018-07-25T22:07:18.954Z,100072.98
2018-07-25T22:10:25.216Z,100071.91
2018-07-25T22:13:28.522Z,100078.20
2018-07-25T22:16:31.777Z,100077.00
2018-07-25T22:19:37.413Z,100084.24
2018-07-25T22:22:42.647Z,100087.40
2018-07-25T22:25:47.542Z,100086.75
2018-07-25T22:28:51.610Z,100087.38
2018-07-25T22:31:57.566Z,100090.52
2018-07-25T22:35:01.720Z,100089.05
2018-07-25T22:38:05.467Z,100095.45
2018-07-25T22:41:09.059Z,100091.69
2018-07-25T22:44:12.822Z,100089.56
2018-07-25T22:47:16.726Z,100085.95
2018-07-25T22:50:20.798Z,100100.22
2018-07-25T22:53:25.119Z,100069.98
2018-07-25T22:56:28.874Z,100073.45
2018-07-25T22:59:33.336Z,100072.42
2018-07-25T23:02:36.836Z,100073.49
2018-07-25T23:05:41.191Z,100073.94
2018-07-25T23:08:44.635Z,100069.83
2018-07-25T23:11:54.619Z,100069.95
2018-07-25T23:14:58.056Z,100087.31
2018-07-25T23:18:01.566Z,100066.50
2018-07-25T23:21:04.952Z,100059.02
2018-07-25T23:24:08.460Z,100070.03
2018-07-25T23:27:11.916Z,100058.67
2018-07-25T23:30:15.881Z,100062.34
2018-07-25T23:33:20.407Z,100054.94
2018-07-25T23:36:23.879Z,100017.75
2018-07-25T23:39:27.194Z,99953.19
2018-07-25T23:42:30.562Z,99868.62
2018-07-25T23:45:33.816Z,100049.39
2018-07-25T23:48:37.152Z,100059.50
2018-07-25T23:51:40.963Z,100052.88
2018-07-25T23:54:44.388Z,100055.88
2018-07-25T23:57:47.767Z,100054.20
